sensor_id;sensor_type;location;lat;lon;timestamp;P1;durP1;ratioP1;P2;durP2;ratioP2
55202;SDS011;41077;52.956;6.796;2022-08-19T00:00:14;56.33;;;53.03;;
55202;SDS011;41077;52.956;6.796;2022-08-19T00:02:41;64.72;;;60.78;;
55202;SDS011;41077;52.956;6.796;2022-08-19T00:05:08;63.00;;;59.28;;
55202;SDS011;41077;52.956;6.796;2022-08-19T00:07:35;59.08;;;55.33;;
55202;SDS011;41077;52.956;6.796;2022-08-19T00:10:03;58.42;;;55.03;;
55202;SDS011;41077;52.956;6.796;2022-08-19T00:12:30;61.88;;;57.72;;
55202;SDS011;41077;52.956;6.796;2022-08-19T00:14:55;61.25;;;57.45;;
55202;SDS011;41077;52.956;6.796;2022-08-19T00:17:21;63.40;;;59.33;;
55202;SDS011;41077;52.956;6.796;2022-08-19T00:19:47;58.42;;;54.90;;
55202;SDS011;41077;52.956;6.796;2022-08-19T00:22:13;57.38;;;53.88;;
55202;SDS011;41077;52.956;6.796;2022-08-19T00:24:39;62.13;;;58.40;;
55202;SDS011;41077;52.956;6.796;2022-08-19T00:27:06;60.78;;;56.65;;
55202;SDS011;41077;52.956;6.796;2022-08-19T00:29:31;62.90;;;59.05;;
55202;SDS011;41077;52.956;6.796;2022-08-19T00:31:57;66.85;;;62.67;;
55202;SDS011;41077;52.956;6.796;2022-08-19T00:34:24;64.28;;;59.85;;
55202;SDS011;41077;52.956;6.796;2022-08-19T00:36:55;66.13;;;62.30;;
55202;SDS011;41077;52.956;6.796;2022-08-19T00:39:21;65.10;;;61.28;;
55202;SDS011;41077;52.956;6.796;2022-08-19T00:41:47;69.03;;;65.07;;
55202;SDS011;41077;52.956;6.796;2022-08-19T00:44:16;64.60;;;60.88;;
55202;SDS011;41077;52.956;6.796;2022-08-19T00:46:43;66.03;;;62.17;;
55202;SDS011;41077;52.956;6.796;2022-08-19T00:49:15;63.88;;;60.22;;
55202;SDS011;41077;52.956;6.796;2022-08-19T00:51:48;69.03;;;65.03;;
55202;SDS011;41077;52.956;6.796;2022-08-19T00:54:18;76.25;;;71.80;;
55202;SDS011;41077;52.956;6.796;2022-08-19T00:56:44;66.20;;;62.38;;
55202;SDS011;41077;52.956;6.796;2022-08-19T00:59:10;66.68;;;62.60;;
55202;SDS011;41077;52.956;6.796;2022-08-19T01:01:37;70.90;;;66.32;;
55202;SDS011;41077;52.956;6.796;2022-08-19T01:04:04;68.82;;;64.80;;
55202;SDS011;41077;52.956;6.796;2022-08-19T01:06:30;66.30;;;62.22;;
55202;SDS011;41077;52.956;6.796;2022-08-19T01:08:58;68.68;;;64.60;;
55202;SDS011;41077;52.956;6.796;2022-08-19T01:11:25;63.63;;;59.83;;
55202;SDS011;41077;52.956;6.796;2022-08-19T01:13:52;68.95;;;64.80;;
55202;SDS011;41077;52.956;6.796;2022-08-19T01:16:19;73.20;;;68.60;;
55202;SDS011;41077;52.956;6.796;2022-08-19T01:18:48;72.25;;;67.88;;
55202;SDS011;41077;52.956;6.796;2022-08-19T01:21:27;70.18;;;66.30;;
55202;SDS011;41077;52.956;6.796;2022-08-19T01:23:59;78.65;;;74.25;;
55202;SDS011;41077;52.956;6.796;2022-08-19T01:26:25;77.95;;;73.03;;
55202;SDS011;41077;52.956;6.796;2022-08-19T01:28:53;69.03;;;64.95;;
55202;SDS011;41077;52.956;6.796;2022-08-19T01:31:22;74.82;;;70.50;;
55202;SDS011;41077;52.956;6.796;2022-08-19T01:33:50;76.18;;;71.78;;
55202;SDS011;41077;52.956;6.796;2022-08-19T01:36:22;74.22;;;69.82;;
55202;SDS011;41077;52.956;6.796;2022-08-19T01:38:52;89.07;;;83.90;;
55202;SDS011;41077;52.956;6.796;2022-08-19T01:41:19;81.20;;;76.43;;
55202;SDS011;41077;52.956;6.796;2022-08-19T01:43:45;82.68;;;77.60;;
55202;SDS011;41077;52.956;6.796;2022-08-19T01:46:11;85.60;;;80.60;;
55202;SDS011;41077;52.956;6.796;2022-08-19T01:48:38;76.55;;;71.90;;
55202;SDS011;41077;52.956;6.796;2022-08-19T01:51:06;83.18;;;78.32;;
55202;SDS011;41077;52.956;6.796;2022-08-19T01:53:33;87.30;;;82.18;;
55202;SDS011;41077;52.956;6.796;2022-08-19T01:55:59;84.07;;;78.50;;
55202;SDS011;41077;52.956;6.796;2022-08-19T01:58:28;81.45;;;76.75;;
55202;SDS011;41077;52.956;6.796;2022-08-19T02:00:58;83.07;;;78.10;;
55202;SDS011;41077;52.956;6.796;2022-08-19T02:03:24;84.47;;;79.68;;
55202;SDS011;41077;52.956;6.796;2022-08-19T02:05:54;91.53;;;86.07;;
55202;SDS011;41077;52.956;6.796;2022-08-19T02:08:21;80.50;;;75.65;;
55202;SDS011;41077;52.956;6.796;2022-08-19T02:10:47;87.78;;;82.68;;
55202;SDS011;41077;52.956;6.796;2022-08-19T02:13:15;84.35;;;79.57;;
55202;SDS011;41077;52.956;6.796;2022-08-19T02:15:41;82.05;;;76.95;;
55202;SDS011;41077;52.956;6.796;2022-08-19T02:18:07;85.00;;;79.65;;
55202;SDS011;41077;52.956;6.796;2022-08-19T02:20:33;85.63;;;80.47;;
55202;SDS011;41077;52.956;6.796;2022-08-19T02:23:00;89.07;;;83.65;;
55202;SDS011;41077;52.956;6.796;2022-08-19T02:25:26;84.25;;;78.82;;
55202;SDS011;41077;52.956;6.796;2022-08-19T02:27:52;86.45;;;81.25;;
55202;SDS011;41077;52.956;6.796;2022-08-19T02:30:19;87.47;;;82.40;;
55202;SDS011;41077;52.956;6.796;2022-08-19T02:32:45;90.38;;;85.20;;
55202;SDS011;41077;52.956;6.796;2022-08-19T02:35:11;87.82;;;82.78;;
55202;SDS011;41077;52.956;6.796;2022-08-19T02:37:39;80.20;;;75.15;;
55202;SDS011;41077;52.956;6.796;2022-08-19T02:40:24;80.90;;;75.65;;
55202;SDS011;41077;52.956;6.796;2022-08-19T02:42:50;86.00;;;80.75;;
55202;SDS011;41077;52.956;6.796;2022-08-19T02:45:16;88.15;;;82.78;;
55202;SDS011;41077;52.956;6.796;2022-08-19T02:47:42;89.40;;;84.30;;
55202;SDS011;41077;52.956;6.796;2022-08-19T02:50:08;82.47;;;77.50;;
55202;SDS011;41077;52.956;6.796;2022-08-19T02:52:34;86.60;;;81.60;;
55202;SDS011;41077;52.956;6.796;2022-08-19T02:55:01;86.15;;;81.15;;
55202;SDS011;41077;52.956;6.796;2022-08-19T02:57:26;86.88;;;81.63;;
55202;SDS011;41077;52.956;6.796;2022-08-19T02:59:52;87.85;;;82.45;;
55202;SDS011;41077;52.956;6.796;2022-08-19T03:02:18;90.88;;;85.47;;
55202;SDS011;41077;52.956;6.796;2022-08-19T03:04:44;90.72;;;84.93;;
55202;SDS011;41077;52.956;6.796;2022-08-19T03:07:12;88.93;;;83.88;;
55202;SDS011;41077;52.956;6.796;2022-08-19T03:09:39;91.00;;;85.78;;
55202;SDS011;41077;52.956;6.796;2022-08-19T03:12:06;86.30;;;81.15;;
55202;SDS011;41077;52.956;6.796;2022-08-19T03:14:33;87.82;;;82.65;;
55202;SDS011;41077;52.956;6.796;2022-08-19T03:16:59;86.53;;;80.85;;
55202;SDS011;41077;52.956;6.796;2022-08-19T03:19:25;94.10;;;88.47;;
55202;SDS011;41077;52.956;6.796;2022-08-19T03:21:52;90.50;;;85.07;;
55202;SDS011;41077;52.956;6.796;2022-08-19T03:24:18;88.13;;;82.97;;
55202;SDS011;41077;52.956;6.796;2022-08-19T03:26:49;90.75;;;85.45;;
55202;SDS011;41077;52.956;6.796;2022-08-19T03:29:17;90.72;;;85.07;;
55202;SDS011;41077;52.956;6.796;2022-08-19T03:31:44;97.78;;;91.88;;
55202;SDS011;41077;52.956;6.796;2022-08-19T03:34:11;93.18;;;87.53;;
55202;SDS011;41077;52.956;6.796;2022-08-19T03:36:42;84.57;;;79.28;;
55202;SDS011;41077;52.956;6.796;2022-08-19T03:39:09;88.90;;;83.70;;
55202;SDS011;41077;52.956;6.796;2022-08-19T03:41:36;84.50;;;79.50;;
55202;SDS011;41077;52.956;6.796;2022-08-19T03:44:04;78.35;;;73.63;;
55202;SDS011;41077;52.956;6.796;2022-08-19T03:46:31;90.82;;;85.05;;
55202;SDS011;41077;52.956;6.796;2022-08-19T03:48:59;82.50;;;77.70;;
55202;SDS011;41077;52.956;6.796;2022-08-19T03:51:32;81.38;;;76.20;;
55202;SDS011;41077;52.956;6.796;2022-08-19T03:54:00;84.25;;;79.28;;
55202;SDS011;41077;52.956;6.796;2022-08-19T03:56:27;91.47;;;86.07;;
55202;SDS011;41077;52.956;6.796;2022-08-19T03:58:54;88.38;;;83.07;;
55202;SDS011;41077;52.956;6.796;2022-08-19T04:01:22;89.38;;;83.78;;
55202;SDS011;41077;52.956;6.796;2022-08-19T04:03:49;83.97;;;79.00;;
55202;SDS011;41077;52.956;6.796;2022-08-19T04:06:29;84.72;;;79.72;;
55202;SDS011;41077;52.956;6.796;2022-08-19T04:08:56;86.72;;;81.70;;
55202;SDS011;41077;52.956;6.796;2022-08-19T04:11:25;88.22;;;82.90;;
55202;SDS011;41077;52.956;6.796;2022-08-19T04:13:53;83.30;;;78.05;;
55202;SDS011;41077;52.956;6.796;2022-08-19T04:16:20;88.05;;;82.70;;
55202;SDS011;41077;52.956;6.796;2022-08-19T04:18:49;81.20;;;76.07;;
55202;SDS011;41077;52.956;6.796;2022-08-19T04:21:16;91.50;;;85.85;;
55202;SDS011;41077;52.956;6.796;2022-08-19T04:23:47;85.55;;;79.97;;
55202;SDS011;41077;52.956;6.796;2022-08-19T04:26:14;91.22;;;85.20;;
55202;SDS011;41077;52.956;6.796;2022-08-19T04:28:41;94.95;;;88.53;;
55202;SDS011;41077;52.956;6.796;2022-08-19T04:31:12;97.10;;;90.68;;
55202;SDS011;41077;52.956;6.796;2022-08-19T04:33:40;91.63;;;85.68;;
55202;SDS011;41077;52.956;6.796;2022-08-19T04:36:06;93.97;;;87.50;;
55202;SDS011;41077;52.956;6.796;2022-08-19T04:38:32;95.20;;;88.90;;
55202;SDS011;41077;52.956;6.796;2022-08-19T04:40:58;101.45;;;94.80;;
55202;SDS011;41077;52.956;6.796;2022-08-19T04:43:42;97.30;;;90.73;;
55202;SDS011;41077;52.956;6.796;2022-08-19T04:46:13;100.03;;;93.47;;
55202;SDS011;41077;52.956;6.796;2022-08-19T04:48:39;96.57;;;90.05;;
55202;SDS011;41077;52.956;6.796;2022-08-19T04:51:06;89.85;;;83.95;;
55202;SDS011;41077;52.956;6.796;2022-08-19T04:53:38;95.55;;;89.18;;
55202;SDS011;41077;52.956;6.796;2022-08-19T04:58:35;97.53;;;91.28;;
55202;SDS011;41077;52.956;6.796;2022-08-19T05:01:01;94.72;;;88.28;;
55202;SDS011;41077;52.956;6.796;2022-08-19T05:03:28;95.65;;;89.53;;
55202;SDS011;41077;52.956;6.796;2022-08-19T05:05:57;93.50;;;87.63;;
55202;SDS011;41077;52.956;6.796;2022-08-19T05:08:24;94.20;;;88.13;;
55202;SDS011;41077;52.956;6.796;2022-08-19T05:10:50;92.50;;;86.68;;
55202;SDS011;41077;52.956;6.796;2022-08-19T05:13:17;93.60;;;87.43;;
55202;SDS011;41077;52.956;6.796;2022-08-19T05:15:53;101.72;;;94.85;;
55202;SDS011;41077;52.956;6.796;2022-08-19T05:18:23;94.53;;;87.85;;
55202;SDS011;41077;52.956;6.796;2022-08-19T05:21:08;102.13;;;95.10;;
55202;SDS011;41077;52.956;6.796;2022-08-19T05:23:54;95.53;;;88.82;;
55202;SDS011;41077;52.956;6.796;2022-08-19T05:26:19;104.68;;;97.88;;
55202;SDS011;41077;52.956;6.796;2022-08-19T05:28:45;97.30;;;91.10;;
55202;SDS011;41077;52.956;6.796;2022-08-19T05:31:11;100.80;;;93.97;;
55202;SDS011;41077;52.956;6.796;2022-08-19T05:33:37;96.72;;;90.45;;
55202;SDS011;41077;52.956;6.796;2022-08-19T05:36:04;100.45;;;94.03;;
55202;SDS011;41077;52.956;6.796;2022-08-19T05:38:32;96.57;;;90.15;;
55202;SDS011;41077;52.956;6.796;2022-08-19T05:40:59;93.53;;;87.50;;
55202;SDS011;41077;52.956;6.796;2022-08-19T05:43:24;98.47;;;92.03;;
55202;SDS011;41077;52.956;6.796;2022-08-19T05:45:50;101.25;;;94.53;;
55202;SDS011;41077;52.956;6.796;2022-08-19T05:48:16;104.70;;;97.88;;
55202;SDS011;41077;52.956;6.796;2022-08-19T05:50:45;98.95;;;92.32;;
55202;SDS011;41077;52.956;6.796;2022-08-19T05:53:12;96.25;;;88.85;;
55202;SDS011;41077;52.956;6.796;2022-08-19T05:55:41;88.07;;;81.63;;
55202;SDS011;41077;52.956;6.796;2022-08-19T05:58:07;93.40;;;86.97;;
55202;SDS011;41077;52.956;6.796;2022-08-19T06:00:33;91.95;;;84.97;;
55202;SDS011;41077;52.956;6.796;2022-08-19T06:03:00;93.65;;;87.03;;
55202;SDS011;41077;52.956;6.796;2022-08-19T06:05:28;87.93;;;81.60;;
55202;SDS011;41077;52.956;6.796;2022-08-19T06:07:57;80.55;;;73.78;;
55202;SDS011;41077;52.956;6.796;2022-08-19T06:10:24;88.85;;;82.40;;
55202;SDS011;41077;52.956;6.796;2022-08-19T06:12:51;84.07;;;77.78;;
55202;SDS011;41077;52.956;6.796;2022-08-19T06:15:17;81.05;;;75.30;;
55202;SDS011;41077;52.956;6.796;2022-08-19T06:17:43;85.15;;;78.85;;
55202;SDS011;41077;52.956;6.796;2022-08-19T06:20:13;77.70;;;71.65;;
55202;SDS011;41077;52.956;6.796;2022-08-19T06:22:40;79.50;;;73.70;;
55202;SDS011;41077;52.956;6.796;2022-08-19T06:25:08;80.60;;;74.93;;
55202;SDS011;41077;52.956;6.796;2022-08-19T06:27:36;79.82;;;73.45;;
55202;SDS011;41077;52.956;6.796;2022-08-19T06:30:02;76.07;;;70.55;;
55202;SDS011;41077;52.956;6.796;2022-08-19T06:32:29;85.40;;;79.57;;
55202;SDS011;41077;52.956;6.796;2022-08-19T06:34:55;80.90;;;74.82;;
55202;SDS011;41077;52.956;6.796;2022-08-19T06:37:21;76.35;;;70.60;;
55202;SDS011;41077;52.956;6.796;2022-08-19T06:39:47;82.93;;;77.32;;
55202;SDS011;41077;52.956;6.796;2022-08-19T06:42:13;82.13;;;75.70;;
55202;SDS011;41077;52.956;6.796;2022-08-19T06:44:42;78.78;;;71.72;;
55202;SDS011;41077;52.956;6.796;2022-08-19T06:47:10;75.28;;;69.32;;
55202;SDS011;41077;52.956;6.796;2022-08-19T06:49:39;70.35;;;65.28;;
55202;SDS011;41077;52.956;6.796;2022-08-19T06:52:05;68.03;;;62.38;;
55202;SDS011;41077;52.956;6.796;2022-08-19T06:54:31;69.93;;;64.57;;
55202;SDS011;41077;52.956;6.796;2022-08-19T06:56:57;69.50;;;64.10;;
55202;SDS011;41077;52.956;6.796;2022-08-19T06:59:27;69.05;;;63.95;;
55202;SDS011;41077;52.956;6.796;2022-08-19T07:01:57;74.53;;;69.32;;
55202;SDS011;41077;52.956;6.796;2022-08-19T07:04:27;72.35;;;67.20;;
55202;SDS011;41077;52.956;6.796;2022-08-19T07:06:59;69.32;;;64.00;;
55202;SDS011;41077;52.956;6.796;2022-08-19T07:09:28;63.38;;;58.67;;
55202;SDS011;41077;52.956;6.796;2022-08-19T07:11:54;95.13;;;89.28;;
55202;SDS011;41077;52.956;6.796;2022-08-19T07:14:22;65.10;;;60.58;;
55202;SDS011;41077;52.956;6.796;2022-08-19T07:16:50;71.63;;;66.80;;
55202;SDS011;41077;52.956;6.796;2022-08-19T07:19:19;70.05;;;64.15;;
55202;SDS011;41077;52.956;6.796;2022-08-19T07:21:47;65.65;;;60.65;;
55202;SDS011;41077;52.956;6.796;2022-08-19T07:24:14;82.85;;;77.53;;
55202;SDS011;41077;52.956;6.796;2022-08-19T07:26:41;87.38;;;81.93;;
55202;SDS011;41077;52.956;6.796;2022-08-19T07:29:07;63.83;;;59.50;;
55202;SDS011;41077;52.956;6.796;2022-08-19T07:31:34;63.42;;;58.78;;
55202;SDS011;41077;52.956;6.796;2022-08-19T07:34:03;76.57;;;71.60;;
55202;SDS011;41077;52.956;6.796;2022-08-19T07:36:32;95.05;;;88.65;;
55202;SDS011;41077;52.956;6.796;2022-08-19T07:38:59;71.82;;;66.78;;
55202;SDS011;41077;52.956;6.796;2022-08-19T07:41:29;69.22;;;64.88;;
55202;SDS011;41077;52.956;6.796;2022-08-19T07:43:56;72.97;;;68.10;;
55202;SDS011;41077;52.956;6.796;2022-08-19T07:46:26;74.82;;;69.60;;
55202;SDS011;41077;52.956;6.796;2022-08-19T07:48:53;79.93;;;74.28;;
55202;SDS011;41077;52.956;6.796;2022-08-19T07:51:19;93.05;;;87.40;;
55202;SDS011;41077;52.956;6.796;2022-08-19T07:53:46;67.28;;;62.80;;
55202;SDS011;41077;52.956;6.796;2022-08-19T07:56:14;67.65;;;63.05;;
55202;SDS011;41077;52.956;6.796;2022-08-19T07:58:41;68.20;;;63.28;;
55202;SDS011;41077;52.956;6.796;2022-08-19T08:01:10;69.78;;;65.20;;
55202;SDS011;41077;52.956;6.796;2022-08-19T08:03:38;63.65;;;59.40;;
55202;SDS011;41077;52.956;6.796;2022-08-19T08:06:22;66.28;;;61.95;;
55202;SDS011;41077;52.956;6.796;2022-08-19T08:09:07;115.25;;;108.47;;
55202;SDS011;41077;52.956;6.796;2022-08-19T08:11:41;66.05;;;61.25;;
55202;SDS011;41077;52.956;6.796;2022-08-19T08:14:14;77.15;;;71.68;;
55202;SDS011;41077;52.956;6.796;2022-08-19T08:16:45;74.78;;;70.18;;
55202;SDS011;41077;52.956;6.796;2022-08-19T08:19:11;77.15;;;72.32;;
55202;SDS011;41077;52.956;6.796;2022-08-19T08:21:41;69.00;;;64.57;;
55202;SDS011;41077;52.956;6.796;2022-08-19T08:24:08;68.13;;;64.00;;
55202;SDS011;41077;52.956;6.796;2022-08-19T08:26:34;66.55;;;62.40;;
55202;SDS011;41077;52.956;6.796;2022-08-19T08:29:00;74.28;;;69.43;;
55202;SDS011;41077;52.956;6.796;2022-08-19T08:31:26;70.20;;;65.43;;
55202;SDS011;41077;52.956;6.796;2022-08-19T08:33:53;57.13;;;53.35;;
55202;SDS011;41077;52.956;6.796;2022-08-19T08:36:18;92.30;;;86.68;;
55202;SDS011;41077;52.956;6.796;2022-08-19T08:38:44;69.03;;;64.55;;
55202;SDS011;41077;52.956;6.796;2022-08-19T08:44:22;63.53;;;59.55;;
55202;SDS011;41077;52.956;6.796;2022-08-19T08:46:58;64.13;;;60.23;;
55202;SDS011;41077;52.956;6.796;2022-08-19T08:49:33;67.35;;;63.13;;
55202;SDS011;41077;52.956;6.796;2022-08-19T08:52:15;61.63;;;57.92;;
55202;SDS011;41077;52.956;6.796;2022-08-19T08:54:52;59.70;;;55.78;;
55202;SDS011;41077;52.956;6.796;2022-08-19T08:57:23;68.60;;;64.70;;
55202;SDS011;41077;52.956;6.796;2022-08-19T08:59:56;67.68;;;63.88;;
55202;SDS011;41077;52.956;6.796;2022-08-19T09:02:25;65.05;;;61.00;;
55202;SDS011;41077;52.956;6.796;2022-08-19T09:04:51;40.90;;;38.30;;
55202;SDS011;41077;52.956;6.796;2022-08-19T09:09:55;47.65;;;45.00;;
55202;SDS011;41077;52.956;6.796;2022-08-19T09:12:38;52.58;;;49.45;;
55202;SDS011;41077;52.956;6.796;2022-08-19T09:15:08;58.00;;;54.65;;
55202;SDS011;41077;52.956;6.796;2022-08-19T09:17:37;51.38;;;48.33;;
55202;SDS011;41077;52.956;6.796;2022-08-19T09:22:34;42.53;;;39.53;;
55202;SDS011;41077;52.956;6.796;2022-08-19T09:25:00;42.83;;;40.03;;
55202;SDS011;41077;52.956;6.796;2022-08-19T09:27:27;47.63;;;44.45;;
55202;SDS011;41077;52.956;6.796;2022-08-19T09:29:54;54.60;;;51.30;;
55202;SDS011;41077;52.956;6.796;2022-08-19T09:32:20;42.35;;;39.75;;
55202;SDS011;41077;52.956;6.796;2022-08-19T09:34:47;41.22;;;38.50;;
55202;SDS011;41077;52.956;6.796;2022-08-19T09:37:13;39.35;;;36.97;;
55202;SDS011;41077;52.956;6.796;2022-08-19T09:39:39;53.00;;;49.55;;
55202;SDS011;41077;52.956;6.796;2022-08-19T09:42:06;38.33;;;34.78;;
55202;SDS011;41077;52.956;6.796;2022-08-19T09:44:37;38.30;;;35.72;;
55202;SDS011;41077;52.956;6.796;2022-08-19T09:47:03;38.83;;;36.50;;
55202;SDS011;41077;52.956;6.796;2022-08-19T09:49:29;32.35;;;30.05;;
55202;SDS011;41077;52.956;6.796;2022-08-19T09:51:56;35.40;;;33.03;;
55202;SDS011;41077;52.956;6.796;2022-08-19T09:54:22;33.47;;;31.23;;
55202;SDS011;41077;52.956;6.796;2022-08-19T09:56:48;32.45;;;29.80;;
55202;SDS011;41077;52.956;6.796;2022-08-19T09:59:14;39.03;;;36.20;;
55202;SDS011;41077;52.956;6.796;2022-08-19T10:01:40;29.52;;;27.20;;
55202;SDS011;41077;52.956;6.796;2022-08-19T10:04:06;28.48;;;26.27;;
55202;SDS011;41077;52.956;6.796;2022-08-19T10:06:35;30.60;;;28.67;;
55202;SDS011;41077;52.956;6.796;2022-08-19T10:09:03;33.13;;;30.55;;
55202;SDS011;41077;52.956;6.796;2022-08-19T10:11:31;28.55;;;26.55;;
55202;SDS011;41077;52.956;6.796;2022-08-19T10:13:58;25.63;;;23.60;;
55202;SDS011;41077;52.956;6.796;2022-08-19T10:16:24;29.35;;;27.27;;
55202;SDS011;41077;52.956;6.796;2022-08-19T10:18:51;22.65;;;21.05;;
55202;SDS011;41077;52.956;6.796;2022-08-19T10:23:46;26.00;;;23.98;;
55202;SDS011;41077;52.956;6.796;2022-08-19T10:26:15;27.60;;;25.65;;
55202;SDS011;41077;52.956;6.796;2022-08-19T10:28:43;24.85;;;22.85;;
55202;SDS011;41077;52.956;6.796;2022-08-19T10:31:11;22.70;;;21.20;;
55202;SDS011;41077;52.956;6.796;2022-08-19T10:33:48;22.67;;;20.98;;
55202;SDS011;41077;52.956;6.796;2022-08-19T10:36:15;28.73;;;26.77;;
55202;SDS011;41077;52.956;6.796;2022-08-19T10:38:46;26.25;;;24.42;;
55202;SDS011;41077;52.956;6.796;2022-08-19T10:41:21;23.13;;;21.42;;
55202;SDS011;41077;52.956;6.796;2022-08-19T10:43:52;22.25;;;20.27;;
55202;SDS011;41077;52.956;6.796;2022-08-19T10:46:19;22.98;;;20.95;;
55202;SDS011;41077;52.956;6.796;2022-08-19T10:48:47;30.55;;;28.40;;
55202;SDS011;41077;52.956;6.796;2022-08-19T10:51:13;23.55;;;21.50;;
55202;SDS011;41077;52.956;6.796;2022-08-19T10:53:57;23.50;;;21.75;;
55202;SDS011;41077;52.956;6.796;2022-08-19T10:56:23;23.33;;;21.58;;
55202;SDS011;41077;52.956;6.796;2022-08-19T10:59:09;22.98;;;21.40;;
55202;SDS011;41077;52.956;6.796;2022-08-19T11:01:37;23.45;;;21.58;;
55202;SDS011;41077;52.956;6.796;2022-08-19T11:04:03;26.15;;;24.10;;
55202;SDS011;41077;52.956;6.796;2022-08-19T11:06:32;23.35;;;21.65;;
55202;SDS011;41077;52.956;6.796;2022-08-19T11:08:58;22.60;;;21.00;;
55202;SDS011;41077;52.956;6.796;2022-08-19T11:11:25;20.90;;;19.30;;
55202;SDS011;41077;52.956;6.796;2022-08-19T11:13:51;19.02;;;17.55;;
55202;SDS011;41077;52.956;6.796;2022-08-19T11:16:25;21.40;;;19.60;;
55202;SDS011;41077;52.956;6.796;2022-08-19T11:18:56;22.70;;;20.90;;
55202;SDS011;41077;52.956;6.796;2022-08-19T11:21:24;21.45;;;19.35;;
55202;SDS011;41077;52.956;6.796;2022-08-19T11:23:53;21.40;;;19.50;;
55202;SDS011;41077;52.956;6.796;2022-08-19T11:26:21;18.88;;;17.00;;
55202;SDS011;41077;52.956;6.796;2022-08-19T11:28:47;19.35;;;17.63;;
55202;SDS011;41077;52.956;6.796;2022-08-19T11:31:15;19.23;;;17.63;;
55202;SDS011;41077;52.956;6.796;2022-08-19T11:33:43;24.10;;;22.40;;
55202;SDS011;41077;52.956;6.796;2022-08-19T11:36:11;16.33;;;14.95;;
55202;SDS011;41077;52.956;6.796;2022-08-19T11:38:38;18.20;;;16.40;;
55202;SDS011;41077;52.956;6.796;2022-08-19T11:41:05;26.42;;;24.52;;
55202;SDS011;41077;52.956;6.796;2022-08-19T11:43:32;18.58;;;17.15;;
55202;SDS011;41077;52.956;6.796;2022-08-19T11:46:05;19.95;;;18.33;;
55202;SDS011;41077;52.956;6.796;2022-08-19T11:48:32;20.42;;;18.90;;
55202;SDS011;41077;52.956;6.796;2022-08-19T11:50:58;20.40;;;18.73;;
55202;SDS011;41077;52.956;6.796;2022-08-19T11:53:24;22.02;;;20.33;;
55202;SDS011;41077;52.956;6.796;2022-08-19T11:55:50;21.85;;;20.15;;
55202;SDS011;41077;52.956;6.796;2022-08-19T11:58:21;20.30;;;18.35;;
55202;SDS011;41077;52.956;6.796;2022-08-19T12:00:47;20.38;;;18.38;;
55202;SDS011;41077;52.956;6.796;2022-08-19T12:03:13;19.38;;;17.58;;
55202;SDS011;41077;52.956;6.796;2022-08-19T12:05:39;16.92;;;15.43;;
55202;SDS011;41077;52.956;6.796;2022-08-19T12:08:06;19.08;;;17.52;;
55202;SDS011;41077;52.956;6.796;2022-08-19T12:10:33;22.02;;;20.33;;
55202;SDS011;41077;52.956;6.796;2022-08-19T12:12:59;17.38;;;15.98;;
55202;SDS011;41077;52.956;6.796;2022-08-19T12:15:26;17.02;;;15.43;;
55202;SDS011;41077;52.956;6.796;2022-08-19T12:17:54;17.88;;;16.27;;
55202;SDS011;41077;52.956;6.796;2022-08-19T12:20:22;18.25;;;16.65;;
55202;SDS011;41077;52.956;6.796;2022-08-19T12:22:49;17.52;;;15.98;;
55202;SDS011;41077;52.956;6.796;2022-08-19T12:25:15;19.95;;;18.55;;
55202;SDS011;41077;52.956;6.796;2022-08-19T12:27:41;19.38;;;17.85;;
55202;SDS011;41077;52.956;6.796;2022-08-19T12:30:08;20.88;;;19.13;;
55202;SDS011;41077;52.956;6.796;2022-08-19T12:32:36;20.10;;;18.50;;
55202;SDS011;41077;52.956;6.796;2022-08-19T12:35:03;25.30;;;23.48;;
55202;SDS011;41077;52.956;6.796;2022-08-19T12:37:29;21.35;;;19.77;;
55202;SDS011;41077;52.956;6.796;2022-08-19T12:39:56;21.00;;;19.38;;
55202;SDS011;41077;52.956;6.796;2022-08-19T12:42:22;19.65;;;17.85;;
55202;SDS011;41077;52.956;6.796;2022-08-19T12:44:48;17.88;;;15.65;;
55202;SDS011;41077;52.956;6.796;2022-08-19T12:47:14;19.38;;;17.33;;
55202;SDS011;41077;52.956;6.796;2022-08-19T12:49:40;22.15;;;20.10;;
55202;SDS011;41077;52.956;6.796;2022-08-19T12:52:06;20.58;;;18.98;;
55202;SDS011;41077;52.956;6.796;2022-08-19T12:54:33;31.35;;;29.00;;
55202;SDS011;41077;52.956;6.796;2022-08-19T12:57:00;20.40;;;18.67;;
55202;SDS011;41077;52.956;6.796;2022-08-19T12:59:29;20.48;;;18.52;;
55202;SDS011;41077;52.956;6.796;2022-08-19T13:01:55;20.30;;;18.65;;
55202;SDS011;41077;52.956;6.796;2022-08-19T13:04:21;18.70;;;17.15;;
55202;SDS011;41077;52.956;6.796;2022-08-19T13:06:46;14.70;;;13.68;;
55202;SDS011;41077;52.956;6.796;2022-08-19T13:09:12;17.23;;;15.80;;
55202;SDS011;41077;52.956;6.796;2022-08-19T13:11:38;7.07;;;6.55;;
55202;SDS011;41077;52.956;6.796;2022-08-19T13:14:04;7.35;;;6.55;;
55202;SDS011;41077;52.956;6.796;2022-08-19T13:16:30;9.60;;;8.70;;
55202;SDS011;41077;52.956;6.796;2022-08-19T13:18:56;11.75;;;10.68;;
55202;SDS011;41077;52.956;6.796;2022-08-19T13:21:24;12.68;;;11.45;;
55202;SDS011;41077;52.956;6.796;2022-08-19T13:23:51;11.45;;;10.38;;
55202;SDS011;41077;52.956;6.796;2022-08-19T13:26:17;10.27;;;7.20;;
55202;SDS011;41077;52.956;6.796;2022-08-19T13:28:44;12.38;;;7.65;;
55202;SDS011;41077;52.956;6.796;2022-08-19T13:31:30;8.35;;;7.50;;
55202;SDS011;41077;52.956;6.796;2022-08-19T13:34:17;8.77;;;7.97;;
55202;SDS011;41077;52.956;6.796;2022-08-19T13:36:44;7.60;;;7.03;;
55202;SDS011;41077;52.956;6.796;2022-08-19T13:39:10;7.35;;;6.75;;
55202;SDS011;41077;52.956;6.796;2022-08-19T13:41:35;6.70;;;6.20;;
55202;SDS011;41077;52.956;6.796;2022-08-19T13:44:02;6.72;;;6.20;;
55202;SDS011;41077;52.956;6.796;2022-08-19T13:46:29;8.00;;;7.38;;
55202;SDS011;41077;52.956;6.796;2022-08-19T13:48:55;9.15;;;8.25;;
55202;SDS011;41077;52.956;6.796;2022-08-19T13:51:22;9.05;;;8.23;;
55202;SDS011;41077;52.956;6.796;2022-08-19T13:53:48;11.00;;;10.02;;
55202;SDS011;41077;52.956;6.796;2022-08-19T13:56:15;10.30;;;9.40;;
55202;SDS011;41077;52.956;6.796;2022-08-19T13:58:44;8.40;;;7.70;;
55202;SDS011;41077;52.956;6.796;2022-08-19T14:01:11;9.88;;;9.07;;
55202;SDS011;41077;52.956;6.796;2022-08-19T14:03:37;12.48;;;11.38;;
55202;SDS011;41077;52.956;6.796;2022-08-19T14:06:03;12.57;;;11.40;;
55202;SDS011;41077;52.956;6.796;2022-08-19T14:08:29;12.00;;;11.02;;
55202;SDS011;41077;52.956;6.796;2022-08-19T14:10:57;13.27;;;12.00;;
55202;SDS011;41077;52.956;6.796;2022-08-19T14:13:23;14.32;;;12.77;;
55202;SDS011;41077;52.956;6.796;2022-08-19T14:15:49;13.18;;;12.27;;
55202;SDS011;41077;52.956;6.796;2022-08-19T14:18:16;17.50;;;15.80;;
55202;SDS011;41077;52.956;6.796;2022-08-19T14:20:43;16.92;;;15.30;;
55202;SDS011;41077;52.956;6.796;2022-08-19T14:23:09;23.10;;;21.30;;
55202;SDS011;41077;52.956;6.796;2022-08-19T14:25:37;21.20;;;19.10;;
55202;SDS011;41077;52.956;6.796;2022-08-19T14:28:03;23.02;;;20.88;;
55202;SDS011;41077;52.956;6.796;2022-08-19T14:30:29;25.85;;;23.33;;
55202;SDS011;41077;52.956;6.796;2022-08-19T14:32:58;24.42;;;21.85;;
55202;SDS011;41077;52.956;6.796;2022-08-19T14:35:29;28.27;;;23.02;;
55202;SDS011;41077;52.956;6.796;2022-08-19T14:37:59;23.00;;;19.75;;
55202;SDS011;41077;52.956;6.796;2022-08-19T14:40:26;23.27;;;20.83;;